createdAt,value
2019-01-15T00:00:33.046Z,77.60
2019-01-15T00:03:38.010Z,76.90
2019-01-15T00:06:43.949Z,76.90
2019-01-15T00:09:48.897Z,76.30
2019-01-15T00:12:54.343Z,76.50
2019-01-15T00:15:59.276Z,76.70
2019-01-15T00:19:03.997Z,76.70
2019-01-15T00:22:09.050Z,76.70
2019-01-15T00:25:13.844Z,76.80
2019-01-15T00:28:18.847Z,77.30
2019-01-15T00:31:23.852Z,77.60
2019-01-15T00:34:28.682Z,78.10
2019-01-15T00:37:33.709Z,77.90
2019-01-15T00:40:38.557Z,77.60
2019-01-15T00:43:43.465Z,77.40
2019-01-15T00:46:48.529Z,77.40
2019-01-15T00:49:53.628Z,77.20
2019-01-15T00:52:58.729Z,77.10
2019-01-15T00:56:04.114Z,77.40
2019-01-15T00:59:09.240Z,77.90
2019-01-15T01:02:14.430Z,77.90
2019-01-15T01:05:19.674Z,78.40
2019-01-15T01:08:24.692Z,79.00
2019-01-15T01:11:29.948Z,78.70
2019-01-15T01:14:34.895Z,79.00
2019-01-15T01:17:40.650Z,79.30
2019-01-15T01:20:45.604Z,80.50
2019-01-15T01:23:50.579Z,79.00
2019-01-15T01:26:55.604Z,78.90
2019-01-15T01:30:00.676Z,79.20
2019-01-15T01:33:05.790Z,78.80
2019-01-15T01:36:10.664Z,79.30
2019-01-15T01:39:15.712Z,78.70
2019-01-15T01:42:20.644Z,78.80
2019-01-15T01:45:25.853Z,78.80
2019-01-15T01:48:31.130Z,79.20
2019-01-15T01:51:36.086Z,79.40
2019-01-15T01:54:41.341Z,79.70
2019-01-15T01:57:46.580Z,79.80
2019-01-15T02:00:51.691Z,80.00
2019-01-15T02:03:56.681Z,79.90
2019-01-15T02:07:01.779Z,80.70
2019-01-15T02:10:08.984Z,80.60
2019-01-15T02:13:13.915Z,80.90
2019-01-15T02:16:18.765Z,80.80
2019-01-15T02:19:23.686Z,80.40
2019-01-15T02:22:28.761Z,80.80
2019-01-15T02:25:33.833Z,80.80
2019-01-15T02:28:38.770Z,80.50
2019-01-15T02:31:43.646Z,79.90
2019-01-15T02:34:48.605Z,79.50
2019-01-15T02:37:53.610Z,79.60
2019-01-15T02:40:58.752Z,79.10
2019-01-15T02:44:03.694Z,78.90
2019-01-15T02:47:08.561Z,79.20
2019-01-15T02:50:15.766Z,79.20
2019-01-15T02:53:20.730Z,79.70
2019-01-15T02:56:25.905Z,79.60
2019-01-15T02:59:31.017Z,79.00
2019-01-15T03:02:36.113Z,78.60
2019-01-15T03:05:41.113Z,78.40
2019-01-15T03:08:45.994Z,78.40
2019-01-15T03:11:50.906Z,78.90
2019-01-15T03:14:55.879Z,78.50
2019-01-15T03:18:00.844Z,78.30
2019-01-15T03:21:05.817Z,78.00
2019-01-15T03:24:10.624Z,78.00
2019-01-15T03:27:15.604Z,77.90
2019-01-15T03:30:22.682Z,77.40
2019-01-15T03:33:27.819Z,77.60
2019-01-15T03:36:32.818Z,77.80
2019-01-15T03:39:40.965Z,77.80
2019-01-15T03:42:46.033Z,77.80
2019-01-15T03:45:51.068Z,77.80
2019-01-15T03:48:56.336Z,77.70
2019-01-15T03:52:01.520Z,77.70
2019-01-15T03:55:06.832Z,77.90
2019-01-15T03:58:11.847Z,77.60
2019-01-15T04:01:16.883Z,77.60
2019-01-15T04:04:21.809Z,77.80
2019-01-15T04:07:26.812Z,77.50
2019-01-15T04:10:31.768Z,77.30
2019-01-15T04:13:36.585Z,77.20
2019-01-15T04:16:41.551Z,76.80
2019-01-15T04:19:46.446Z,76.40
2019-01-15T04:22:51.501Z,75.60
2019-01-15T04:25:56.352Z,75.30
2019-01-15T04:29:01.285Z,75.00
2019-01-15T04:32:06.228Z,74.50
2019-01-15T04:35:11.442Z,74.70
2019-01-15T04:38:16.284Z,74.70
2019-01-15T04:41:21.352Z,75.00
2019-01-15T04:44:26.444Z,75.20
2019-01-15T04:47:31.443Z,75.10
2019-01-15T04:50:36.522Z,75.80
2019-01-15T04:53:42.481Z,75.80
2019-01-15T04:56:47.368Z,75.70
2019-01-15T04:59:52.602Z,75.60
2019-01-15T05:03:00.983Z,75.40
2019-01-15T05:06:05.967Z,75.00
2019-01-15T05:09:10.782Z,74.80
2019-01-15T05:12:15.762Z,74.40
2019-01-15T05:15:20.922Z,74.10
2019-01-15T05:18:26.064Z,74.70
2019-01-15T05:21:31.062Z,74.60
2019-01-15T05:24:36.165Z,74.70
2019-01-15T05:27:41.107Z,74.70
2019-01-15T05:30:45.965Z,74.80
2019-01-15T05:33:51.008Z,74.70
2019-01-15T05:36:56.024Z,74.90
2019-01-15T05:40:01.044Z,75.00
2019-01-15T05:43:06.302Z,74.70
2019-01-15T05:46:11.533Z,74.70
2019-01-15T05:49:16.497Z,74.90
2019-01-15T05:52:21.397Z,75.30
2019-01-15T05:55:26.563Z,74.70
2019-01-15T05:58:31.533Z,74.90
2019-01-15T06:01:36.846Z,75.30
2019-01-15T06:04:41.960Z,75.30
2019-01-15T06:07:46.931Z,75.30
2019-01-15T06:10:51.889Z,75.20
2019-01-15T06:13:56.727Z,74.90
2019-01-15T06:17:01.641Z,74.80
2019-01-15T06:20:08.650Z,74.60
2019-01-15T06:23:13.831Z,74.60
2019-01-15T06:26:20.299Z,74.20
2019-01-15T06:29:25.555Z,73.70
2019-01-15T06:32:30.625Z,74.10
2019-01-15T06:35:35.833Z,74.00
2019-01-15T06:38:40.793Z,74.00
2019-01-15T06:41:45.915Z,74.00
2019-01-15T06:44:53.936Z,74.50
2019-01-15T06:47:59.055Z,74.30
2019-01-15T06:51:04.232Z,74.10
2019-01-15T06:54:09.056Z,73.70
2019-01-15T06:57:14.159Z,73.80
2019-01-15T07:00:22.634Z,74.10
2019-01-15T07:03:27.601Z,73.80
2019-01-15T07:06:32.494Z,74.00
2019-01-15T07:09:37.438Z,74.00
2019-01-15T07:12:42.385Z,73.40
2019-01-15T07:15:47.524Z,73.50
2019-01-15T07:18:52.945Z,74.00
2019-01-15T07:21:58.096Z,73.90
2019-01-15T07:25:03.038Z,74.10
2019-01-15T07:28:08.394Z,73.90
2019-01-15T07:31:13.519Z,73.80
2019-01-15T07:34:18.570Z,74.40
2019-01-15T07:37:23.584Z,73.30
2019-01-15T07:40:28.522Z,73.30
2019-01-15T07:43:33.458Z,72.40
2019-01-15T07:46:38.638Z,71.90
2019-01-15T07:49:43.653Z,71.10
2019-01-15T07:52:48.819Z,70.50
2019-01-15T07:55:54.152Z,70.00
2019-01-15T07:58:59.289Z,69.10
2019-01-15T08:02:04.619Z,68.30
2019-01-15T08:05:10.510Z,68.30
2019-01-15T08:08:15.451Z,65.60
2019-01-15T08:11:20.332Z,65.10
2019-01-15T08:14:25.355Z,63.50
2019-01-15T08:17:30.489Z,63.90
2019-01-15T08:20:35.363Z,62.80
2019-01-15T08:23:40.490Z,62.10
2019-01-15T08:26:46.159Z,61.80
2019-01-15T08:29:51.268Z,61.20
2019-01-15T08:32:56.103Z,60.30
2019-01-15T08:36:01.117Z,60.00
2019-01-15T08:39:08.545Z,59.70
2019-01-15T08:42:13.445Z,59.50
2019-01-15T08:45:18.716Z,59.20
2019-01-15T08:48:25.692Z,59.00
2019-01-15T08:51:30.989Z,58.50
2019-01-15T08:54:35.955Z,57.60
2019-01-15T08:57:41.317Z,56.80
2019-01-15T09:00:46.300Z,56.50
2019-01-15T09:03:51.455Z,55.90
2019-01-15T09:06:56.357Z,54.30
2019-01-15T09:10:01.241Z,53.40
2019-01-15T09:13:06.321Z,52.40
2019-01-15T09:16:14.259Z,52.10
2019-01-15T09:19:19.357Z,51.50
2019-01-15T09:22:24.434Z,50.10
2019-01-15T09:25:29.859Z,50.00
2019-01-15T09:28:34.733Z,49.70
2019-01-15T09:31:39.724Z,50.20
2019-01-15T09:34:44.608Z,50.60
2019-01-15T09:37:50.763Z,50.90
2019-01-15T09:40:55.665Z,51.50
2019-01-15T09:44:00.802Z,51.90
2019-01-15T09:47:06.008Z,51.50
2019-01-15T09:50:11.735Z,52.20
2019-01-15T09:53:16.737Z,52.60
2019-01-15T09:56:21.937Z,53.00
2019-01-15T09:59:26.865Z,52.40
2019-01-15T10:02:33.520Z,52.40
2019-01-15T10:05:38.570Z,52.30
2019-01-15T10:08:43.751Z,52.30
2019-01-15T10:11:48.885Z,52.40
2019-01-15T10:14:53.773Z,52.50
2019-01-15T10:17:58.660Z,51.50
2019-01-15T10:21:03.640Z,51.70
2019-01-15T10:24:09.678Z,51.40
2019-01-15T10:27:15.728Z,51.20
2019-01-15T10:30:41.040Z,50.30
2019-01-15T10:33:50.702Z,50.00
2019-01-15T10:36:53.744Z,50.10
2019-01-15T10:39:58.653Z,48.80
2019-01-15T10:43:03.842Z,50.20
2019-01-15T10:46:08.783Z,51.00
2019-01-15T10:49:13.714Z,50.40
2019-01-15T10:52:18.877Z,51.80
2019-01-15T10:55:23.851Z,52.10
2019-01-15T10:58:28.885Z,51.90
2019-01-15T11:01:33.801Z,50.70
2019-01-15T11:04:38.839Z,51.10
2019-01-15T11:07:43.768Z,49.50
2019-01-15T11:10:54.876Z,47.30
2019-01-15T11:13:59.899Z,46.50
2019-01-15T11:17:04.989Z,45.30
2019-01-15T11:20:11.904Z,44.70
2019-01-15T11:23:17.229Z,44.10
2019-01-15T11:26:22.386Z,39.80
2019-01-15T11:29:27.343Z,35.60
2019-01-15T11:32:32.453Z,29.20
2019-01-15T11:35:37.431Z,28.40
2019-01-15T11:38:42.529Z,29.00
2019-01-15T11:41:47.614Z,27.20
2019-01-15T11:44:52.807Z,27.80
2019-01-15T11:47:57.790Z,26.90
2019-01-15T11:51:02.799Z,24.50
2019-01-15T11:54:08.128Z,24.40
2019-01-15T11:57:13.265Z,22.40
2019-01-15T12:00:26.085Z,21.90
2019-01-15T12:03:53.070Z,22.10
2019-01-15T12:07:15.517Z,21.30
2019-01-15T12:10:28.338Z,20.70
2019-01-15T12:13:55.216Z,19.40
2019-01-15T12:17:14.341Z,18.20
2019-01-15T12:20:44.074Z,16.80
2019-01-15T12:24:10.215Z,16.70
2019-01-15T12:27:33.006Z,16.60
2019-01-15T12:31:15.063Z,15.50
2019-01-15T12:34:38.985Z,15.40
2019-01-15T12:38:18.637Z,15.50
2019-01-15T12:41:54.759Z,14.50
2019-01-15T12:45:18.402Z,14.90
2019-01-15T12:48:42.367Z,14.30
2019-01-15T12:52:05.203Z,13.60
2019-01-15T12:55:34.884Z,13.60
2019-01-15T12:59:01.959Z,13.60
2019-01-15T13:02:44.032Z,13.10
2019-01-15T13:06:23.082Z,13.10
2019-01-15T13:09:45.720Z,12.50
2019-01-15T13:13:09.916Z,13.10
2019-01-15T13:16:33.676Z,13.50
2019-01-15T13:19:48.383Z,13.30
2019-01-15T13:23:00.782Z,13.50
2019-01-15T13:26:26.033Z,13.40
2019-01-15T13:29:48.822Z,13.80
2019-01-15T13:33:12.905Z,13.80
2019-01-15T13:36:53.163Z,14.00
2019-01-15T13:40:16.869Z,15.10
2019-01-15T13:43:46.847Z,14.70
2019-01-15T13:47:13.917Z,14.70
2019-01-15T13:50:37.469Z,15.50
2019-01-15T13:54:00.277Z,16.40
2019-01-15T13:57:30.557Z,16.50
2019-01-15T14:01:06.500Z,15.60
2019-01-15T14:04:28.975Z,16.40
2019-01-15T14:07:58.710Z,19.30
2019-01-15T14:11:25.232Z,20.90
2019-01-15T14:14:58.346Z,22.30
2019-01-15T14:18:31.274Z,21.60
2019-01-15T14:21:54.349Z,21.60
2019-01-15T14:25:14.751Z,23.10
2019-01-15T14:28:44.532Z,21.90
2019-01-15T14:32:07.633Z,22.50
2019-01-15T14:35:40.832Z,22.10
2019-01-15T14:39:00.413Z,22.20
2019-01-15T14:42:42.815Z,23.90
2019-01-15T14:46:09.421Z,25.40
2019-01-15T14:49:35.871Z,25.90
2019-01-15T14:52:58.737Z,26.20
2019-01-15T14:56:28.475Z,26.70
2019-01-15T15:00:01.068Z,26.80
2019-01-15T15:03:31.197Z,27.30
2019-01-15T15:06:55.062Z,28.80
2019-01-15T15:10:24.739Z,28.90
2019-01-15T15:13:42.800Z,29.30
2019-01-15T15:17:09.241Z,29.50
2019-01-15T15:20:36.385Z,30.00
2019-01-15T15:24:06.473Z,30.60
2019-01-15T15:27:33.376Z,30.30
2019-01-15T15:30:57.279Z,30.90
2019-01-15T15:34:20.035Z,30.70
2019-01-15T15:37:47.168Z,31.10
2019-01-15T15:41:18.439Z,32.00
2019-01-15T15:44:42.715Z,32.70
2019-01-15T15:48:05.242Z,32.80
2019-01-15T15:51:35.060Z,33.20
2019-01-15T15:54:57.813Z,33.70
2019-01-15T15:58:10.736Z,33.50
2019-01-15T16:01:40.689Z,33.70
2019-01-15T16:05:03.129Z,34.00
2019-01-15T16:08:25.943Z,34.40
2019-01-15T16:11:49.869Z,34.60
2019-01-15T16:15:31.870Z,35.60
2019-01-15T16:18:47.427Z,36.00
2019-01-15T16:22:11.398Z,35.70
2019-01-15T16:25:38.411Z,36.10
2019-01-15T16:29:10.864Z,37.00
2019-01-15T16:32:32.392Z,37.40
2019-01-15T16:35:56.414Z,37.80
2019-01-15T16:39:23.064Z,37.90
2019-01-15T16:42:45.929Z,38.70
2019-01-15T16:46:26.192Z,38.60
2019-01-15T16:49:56.586Z,39.40
2019-01-15T16:53:35.928Z,40.00
2019-01-15T16:57:00.112Z,40.20
2019-01-15T17:00:36.515Z,40.80
2019-01-15T17:04:12.955Z,41.30
2019-01-15T17:07:47.266Z,41.90
2019-01-15T17:11:14.206Z,42.30
2019-01-15T17:14:56.654Z,42.40
2019-01-15T17:18:22.158Z,43.00
2019-01-15T17:21:40.708Z,43.10
2019-01-15T17:25:07.590Z,43.80
2019-01-15T17:28:30.391Z,44.10
2019-01-15T17:31:57.601Z,44.40
2019-01-15T17:35:20.527Z,44.80
2019-01-15T17:38:47.722Z,45.10
2019-01-15T17:42:10.021Z,45.70
2019-01-15T17:45:32.730Z,46.10
2019-01-15T17:48:55.669Z,46.70
2019-01-15T17:52:22.375Z,47.60
2019-01-15T17:55:55.474Z,47.60
2019-01-15T17:59:17.934Z,47.80
2019-01-15T18:02:47.806Z,48.70
2019-01-15T18:06:19.557Z,49.10
2019-01-15T18:09:43.377Z,49.30
2019-01-15T18:13:10.215Z,49.10
2019-01-15T18:16:37.374Z,49.30
2019-01-15T18:20:19.581Z,49.90
2019-01-15T18:23:42.274Z,50.20
2019-01-15T18:27:06.188Z,50.10
2019-01-15T18:30:41.101Z,50.10
2019-01-15T18:34:04.856Z,50.50
2019-01-15T18:37:27.894Z,51.10
2019-01-15T18:40:53.732Z,51.30
2019-01-15T18:44:16.236Z,52.10
2019-01-15T18:47:36.377Z,52.40
2019-01-15T18:50:59.780Z,52.80
2019-01-15T18:54:22.491Z,52.80
2019-01-15T18:57:45.580Z,52.80
2019-01-15T19:01:09.829Z,52.80
2019-01-15T19:04:43.021Z,53.00
2019-01-15T19:08:10.879Z,53.20
2019-01-15T19:11:26.296Z,53.50
2019-01-15T19:14:48.846Z,53.70
2019-01-15T19:18:12.945Z,53.90
2019-01-15T19:21:35.300Z,54.20
2019-01-15T19:24:59.337Z,54.60
2019-01-15T19:28:23.334Z,55.00
2019-01-15T19:31:44.954Z,54.90
2019-01-15T19:35:07.345Z,54.90
2019-01-15T19:38:34.307Z,55.10
2019-01-15T19:41:58.867Z,55.40
2019-01-15T19:45:25.895Z,55.30
2019-01-15T19:48:52.849Z,55.20
2019-01-15T19:52:14.178Z,55.40
2019-01-15T19:55:47.312Z,55.40
2019-01-15T19:59:11.387Z,55.70
2019-01-15T20:02:44.723Z,55.80
2019-01-15T20:06:13.374Z,55.90
2019-01-15T20:09:34.638Z,56.30
2019-01-15T20:12:57.266Z,56.50
2019-01-15T20:16:23.869Z,56.50
2019-01-15T20:19:50.672Z,56.20
2019-01-15T20:23:14.539Z,55.90
2019-01-15T20:26:37.400Z,55.80
2019-01-15T20:30:10.230Z,56.40
2019-01-15T20:33:37.623Z,55.80
2019-01-15T20:37:00.885Z,56.10
2019-01-15T20:40:42.638Z,56.50
2019-01-15T20:44:05.658Z,56.50
2019-01-15T20:47:30.001Z,56.50
2019-01-15T20:50:53.672Z,56.70
2019-01-15T20:54:16.208Z,57.00
2019-01-15T20:57:39.017Z,57.10
2019-01-15T21:01:15.089Z,57.30
2019-01-15T21:04:46.478Z,57.40
2019-01-15T21:08:22.521Z,58.00
2019-01-15T21:11:49.306Z,58.20
2019-01-15T21:15:13.157Z,58.00
2019-01-15T21:18:42.877Z,58.00
2019-01-15T21:22:15.859Z,58.20
2019-01-15T21:25:54.923Z,58.00
2019-01-15T21:29:19.246Z,58.10
2019-01-15T21:32:55.141Z,58.10
2019-01-15T21:36:12.760Z,58.30
2019-01-15T21:39:35.834Z,58.30
2019-01-15T21:42:58.476Z,58.20
2019-01-15T21:46:25.125Z,58.10
2019-01-15T21:49:48.553Z,58.10
2019-01-15T21:53:11.072Z,58.30
2019-01-15T21:56:53.324Z,58.50
2019-01-15T22:00:10.309Z,58.30
2019-01-15T22:03:22.485Z,58.30
2019-01-15T22:06:51.371Z,58.00
2019-01-15T22:10:33.573Z,57.70
2019-01-15T22:13:56.507Z,57.90
2019-01-15T22:17:19.302Z,58.30
2019-01-15T22:20:57.415Z,58.40
2019-01-15T22:24:31.410Z,58.50
2019-01-15T22:27:48.029Z,58.70
2019-01-15T22:31:30.161Z,59.50
2019-01-15T22:34:55.906Z,59.10
2019-01-15T22:38:22.605Z,59.40
2019-01-15T22:41:41.779Z,59.40
2019-01-15T22:45:11.793Z,59.70
2019-01-15T22:48:54.354Z,59.80
2019-01-15T22:52:36.723Z,59.50
2019-01-15T22:55:52.779Z,59.60
2019-01-15T22:59:16.485Z,59.80
2019-01-15T23:02:55.760Z,60.10
2019-01-15T23:06:28.739Z,60.20
2019-01-15T23:09:56.257Z,60.20
2019-01-15T23:13:18.802Z,60.10
2019-01-15T23:16:42.112Z,60.00
2019-01-15T23:19:58.225Z,60.60
2019-01-15T23:23:40.342Z,61.10
2019-01-15T23:26:55.669Z,61.10
2019-01-15T23:30:11.735Z,61.30
2019-01-15T23:33:41.614Z,61.50
2019-01-15T23:37:05.316Z,61.70
2019-01-15T23:40:35.471Z,61.90
2019-01-15T23:43:58.021Z,62.80
2019-01-15T23:47:22.339Z,62.80
2019-01-15T23:50:35.584Z,63.10
2019-01-15T23:54:17.924Z,63.20
2019-01-15T23:57:50.982Z,62.90
